Juan Ríos

Ojeador - Almería
20 Feb 2028
Domingo
Continuar

Personalidad

Adaptabilidad (16) Ambición (9) Controversia (10) Lealtad (19) Presión (1) Profesionalismo (13) Deportividad (10) Temperamento (1)

Perfil

Estilo de dirección Democrático
Licencia Continental C
Determinación 8
Gestión de personas 4
Motivación 5
Disciplina 4
Satisfacción laboral
100%
Fatiga
0%
Cargo Ojeador
Salario 35.8K p/s
Contrato 14.03.2028

Rendimiento

Comportamiento Bueno
Efectividad del entrenamiento
48%
Desarrollo de jugadores
55%
Prevención de lesiones
40%
Implementación táctica
50%

Eventos recientes

Recomendó un objetivo de fichaje ahora
Recomendó un objetivo de fichaje ahora
Recomendó un objetivo de fichaje ahora
Recomendó un objetivo de fichaje ahora
Negociación de contrato iniciada ahora
Negociación de contrato iniciada ahora
Negociación de contrato iniciada ahora
Negociación de contrato iniciada ahora

Actualmente siguiendo

106
Jugador Club Estado Habilidad Confianza Observado Última observación Último voto
Archie Gray Derby County Activo 154 / 153 40% 4 11.02.2028 -
Giovanni Leoni Bradford City Activo 144 / 141 40% 3 11.02.2028 -
Dmitry Pestryakov Dinamo Moscow Activo 116 / 119 40% 1 11.02.2028 -
Ayden Heaven Luton Town Activo 144 / 146 40% 5 10.02.2028 -
Rivaldo Grobler Free State Stars Activo 107 / 112 40% 1 10.02.2028 -
Keagan Phiri Platinum Stars Activo 102 / 105 40% 1 10.02.2028 -
Jaydee Canvot AJ Auxerre Activo 143 / 140 40% 2 08.02.2028 -
Eduardo Felicíssimo Sporting CP Activo 122 / 129 40% 1 08.02.2028 -
Josh Nichols Tranmere Rovers Activo 118 / 129 40% 2 07.02.2028 -
Christos Mouzakitis Hull City Activo 135 / 138 40% 1 07.02.2028 -
Noahkai Banks Hamburger SV Activo 142 / 140 40% 1 31.01.2028 -
Josh King Chelsea Activo 148 / 151 40% 4 24.01.2028 -
Jofre Torrents Ajax Activo 127 / 136 40% 1 24.01.2028 -
Fotis Ioannidis TSG Hoffenheim Activo 136 / 136 67% 1 17.01.2028 Aprobar
Federico Pereira Nacional Negociando 135 / 135 68% 1 01.01.2028 Aprobar
Mao Hosoya Everton Negociando 134 / 135 67% 1 01.01.2028 Aprobar
Nicolás Fernández Mercau Independiente Activo 134 / 134 67% 1 01.01.2028 Aprobar
Juan Morán Godoy Cruz Activo 109 / 117 40% 5 10.12.2027 -
Joel Ezra Enyimba Activo 97 / 94 40% 2 10.12.2027 -
Luis Otávio Colorado Rapids Activo 113 / 113 40% 4 10.12.2027 -
Adam Aznou Everton Perdido 127 / 131 40% 2 08.12.2027 -
Ronan Kpakio Cardiff City Activo 124 / 126 40% 2 08.12.2027 -
Diego Vargas San Marcos de Arica Activo 99 / 93 40% 2 08.12.2027 -
Alejandro Almaraz Nueva Chicago Activo 104 / 118 40% 5 07.12.2027 -
David Valencia Alianza Petrolera Activo 130 / 136 40% 7 28.11.2027 -
Mads Bomholt Stabaek Activo 111 / 107 40% 2 26.11.2027 -
Hervin Goyes Deportivo Pasto Activo 111 / 117 40% 6 26.11.2027 -
Fillip Jenssen Riise Stabaek Activo 97 / 114 40% 3 25.11.2027 -
Felipe Obradovich Ferro Carril Oeste Activo 106 / 121 40% 5 25.11.2027 -
Celías Ingenthron Vélez Activo 109 / 120 40% 4 24.11.2027 -
Ángel Aguayo Sol de America Activo 89 / 94 40% 4 24.11.2027 -
Nazareno Roselli Defensa y Justicia Activo 113 / 127 40% 3 23.11.2027 -
Samuel Martín Millonarios Activo 112 / 120 40% 2 23.11.2027 -
Zahir Ibarra Defensa y Justicia Activo 105 / 99 40% 1 23.11.2027 -
Sebastián Ramírez Jaguares Activo 110 / 118 40% 6 20.11.2027 -
José Correa Deportivo Tachira Activo 94 / 99 40% 2 17.11.2027 -
Matteo Pérez Vinlöf Dinamo Zagreb Activo 129 / 124 40% 1 17.11.2027 -
Kauã Moraes Cruzeiro Activo 121 / 138 40% 1 17.11.2027 -
Olaniyi Saheed Kwara United Activo 96 / 101 40% 2 16.11.2027 -
Mikkel Hope Haugesund Activo 97 / 108 40% 2 15.11.2027 -
Santino Pasini Nea Salamis Activo 104 / 99 40% 1 13.11.2027 -
Tyson Pearce St. Louis CITY SC Activo 92 / 96 40% 1 12.11.2027 -
Mauro Carrizo Atlético Tucumán Activo 108 / 112 40% 5 07.11.2027 -
Tobias Moi Bodo/Glimt Activo 110 / 118 40% 1 05.11.2027 -
Thiago Helguera Braga Activo 126 / 125 40% 2 03.11.2027 -
Tobías Andrada Virtus Entella Activo 114 / 126 40% 1 31.10.2027 -
Emiliano Bértoli Patronato Activo 96 / 104 40% 3 26.10.2027 -
Ricky Atletico Venezuela Activo 95 / 99 40% 3 25.10.2027 -
Agustín Obregón River Plate Activo 106 / 125 40% 1 25.10.2027 -
Miguel Vegas Caracas Activo 103 / 106 40% 2 24.10.2027 -
Elkin Rivero Atletico Nacional Activo 100 / 105 40% 1 19.10.2027 -
Santiago Espíndola River Plate Activo 103 / 119 40% 1 19.10.2027 -
Esteban de Lima Tacuarembo Activo 95 / 96 40% 3 17.10.2027 -
Jorge Salinas Racing Santander Activo 134 / 134 40% 1 11.10.2027 -
Harbor Miller LA Galaxy Activo 93 / 98 40% 1 08.10.2027 -
Trey Nyoni Rotherham United Activo 134 / 142 40% 1 06.10.2027 -
Mbekezeli Mbokazi Chicago Fire Activo 123 / 133 40% 1 11.09.2027 -
Eliás Montiel Werder Bremen Activo 131 / 144 40% 1 10.09.2027 -
Gabriel Moscardo Paris Saint-Germain Activo 129 / 132 40% 1 07.09.2027 -
Teo Rodríguez Pagano River Plate Activo 113 / 123 40% 1 23.08.2027 -
Christ Inao Oulaï Fiorentina Activo 136 / 142 40% 2 18.08.2027 -
Marc Cardona Andorra Activo 114 / 122 79% 1 16.08.2027 Aprobar
Victor Castillo Ceará Activo 138 / 133 40% 1 09.08.2027 -
Izan Merino Málaga Activo 132 / 125 40% 1 09.08.2027 -
Stanislav Agkatsev Sunderland Negociando 132 / 133 66% 1 01.06.2027 Aprobar
Víctor Gómez Braga Activo 138 / 138 66% 1 01.06.2027 Aprobar
Gianluca Saro Foggia Activo 118 / 117 40% 3 30.05.2027 -
Filip Marschall Stevenage Activo 116 / 109 40% 1 30.05.2027 -
Jonmi Magunagoitia Eibar Activo 129 / 125 40% 4 28.05.2027 -
Yehvann Diouf OGC Nice Activo 146 / 145 40% 5 28.05.2027 -
Francisco Meixedo Feirense Activo 110 / 117 40% 9 27.05.2027 -
Jonathan Fischer FC Metz Activo 135 / 133 40% 1 27.05.2027 -
Deniz Ertaş Konyaspor Activo 129 / 116 40% 1 25.05.2027 -
Julen Agirrezabala Racing Santander Activo 144 / 147 40% 4 24.05.2027 -
Guilherme Fernandes Córdoba Activo 134 / 131 40% 3 21.05.2027 -
Adriel Torreense Activo 125 / 124 40% 4 21.05.2027 -
Robin Roefs Sunderland Activo 148 / 150 40% 3 20.05.2027 -
Antonio Gomis Vizela Activo 120 / 118 40% 2 20.05.2027 -
Erick Reyes Toluca Activo 148 / 143 40% 6 19.05.2027 -
Guillaume Restes Toulouse FC Activo 140 / 140 40% 2 19.05.2027 -
Thomas De Bruyne Mouscron Activo 124 / 128 40% 3 17.05.2027 -
Mauro Silveira Junior Activo 129 / 129 40% 1 17.05.2027 -
Radek Vítek Middlesbrough Activo 138 / 136 40% 3 06.05.2027 -
Maduka Okoye Udinese Activo 135 / 143 40% 1 06.05.2027 -
Manuel Roffo Cerro Porteno Activo 141 / 129 40% 2 05.05.2027 -
Heorhii Yermakov Metalist Activo 122 / 120 40% 1 05.05.2027 -
Beau Reus Waasland-Beveren Activo 132 / 126 40% 1 03.05.2027 -
James Trafford Leeds United Activo 143 / 144 40% 2 27.04.2027 -
Michael Cooper Sheffield United Activo 132 / 128 40% 3 20.04.2027 -
Tomáš Frühwald Bohemians 1905 Activo 113 / 121 40% 2 19.04.2027 -
Mathieu Patouillet Stade Brestois Activo 125 / 129 40% 3 16.04.2027 -
Cezary Miszta Rio Ave Activo 138 / 139 40% 4 16.04.2027 -
Leo Kokubo Sint-Truiden Activo 113 / 117 40% 1 16.04.2027 -
Mateusz Kochalski Dynamo Kyiv Activo 130 / 139 40% 1 06.04.2027 -
Igor Nikić Mirandés Activo 122 / 121 40% 1 05.04.2027 -
George Wickens Lincoln City Activo 113 / 118 40% 1 04.04.2027 -
Luis Ingolotti Atlético Tucumán Activo 126 / 114 40% 1 04.04.2027 -
Santiago Silva CFR Cluj Activo 126 / 121 40% 1 31.03.2027 -
Jerónimo Pourtau Talleres Activo 125 / 110 40% 1 31.03.2027 -
João Gonçalves Felgueiras Activo 119 / 120 40% 2 28.03.2027 -
Kyrylo Fesiun Shakhtar Activo 124 / 125 40% 1 27.03.2027 -
Oleksandr Saputin Poltava Activo 114 / 127 40% 1 24.03.2027 -
Bilal Bayazıt Kayserispor Activo 120 / 122 40% 1 19.03.2027 -
Marcelo Allende Mamelodi Sundowns Activo 142 / 128 40% 1 11.01.2027 -
Fidel Ambríz Monterrey Activo 133 / 135 40% 1 11.01.2027 -
Samuel Lucero Defensa y Justicia Activo 110 / 117 40% 1 02.08.2026 -